Time;durP1;ratioP1;P1;durP2;ratioP2;P2;SDS_P1;SDS_P2;PMS_P1;PMS_P2;Temp;Humidity;BMP_temperature;BMP_pressure;BME280_temperature;BME280_humidity;BME280_pressure;Samples;Min_cycle;Max_cycle;Signal;HPM_P1;HPM_P2
2021/10/15 00:00:38;;;;;;;;;;;22.40;45.00;;;;;;1536304;76;858;-73
2021/10/15 00:02:40;;;;;;;;;;;22.40;44.90;;;;;;1534172;77;1944;-74
2021/10/15 00:04:42;;;;;;;;;;;22.40;44.90;;;;;;1536793;77;758;-74
2021/10/15 00:06:44;;;;;;;;;;;22.40;44.90;;;;;;1536941;77;1178;-73
2021/10/15 00:08:46;;;;;;;;;;;22.40;45.00;;;;;;1537020;77;801;-74
2021/10/15 00:10:48;;;;;;;;;;;22.40;45.00;;;;;;1535493;77;741;-73
2021/10/15 00:12:50;;;;;;;;;;;22.40;44.90;;;;;;1537193;77;796;-73
2021/10/15 00:14:51;;;;;;;;;;;22.40;44.90;;;;;;1536935;77;702;-73
2021/10/15 00:16:54;;;;;;;;;;;22.40;44.90;;;;;;1536861;77;1150;-73
2021/10/15 00:18:55;;;;;;;;;;;22.40;45.00;;;;;;1536879;77;816;-73
2021/10/15 00:20:57;;;;;;;;;;;22.40;45.00;;;;;;1530256;77;577;-73
2021/10/15 00:22:59;;;;;;;;;;;22.40;44.90;;;;;;1536896;77;1943;-74
2021/10/15 00:25:01;;;;;;;;;;;22.40;44.90;;;;;;1534217;77;780;-73
2021/10/15 00:27:03;;;;;;;;;;;22.40;44.90;;;;;;1536001;77;1100;-73
2021/10/15 00:29:08;;;;;;;;;;;22.40;45.00;;;;;;1536809;77;733;-72
2021/10/15 00:31:09;;;;;;;;;;;22.40;44.90;;;;;;1534225;77;1699;-73
2021/10/15 00:33:11;;;;;;;;;;;22.40;45.00;;;;;;1536691;77;655;-68
2021/10/15 00:35:13;;;;;;;;;;;22.40;44.90;;;;;;1536939;77;765;-73
2021/10/15 00:37:18;;;;;;;;;;;22.40;44.90;;;;;;1540206;76;1146;-73
2021/10/15 00:39:18;;;;;;;;;;;22.40;45.00;;;;;;1532477;77;1753;-72
2021/10/15 00:41:20;;;;;;;;;;;22.40;44.90;;;;;;1534496;77;1935;-71
2021/10/15 00:43:24;;;;;;;;;;;22.40;45.00;;;;;;1537082;77;825;-71
2021/10/15 00:45:26;;;;;;;;;;;22.30;45.00;;;;;;1538995;76;680;-72
2021/10/15 00:47:27;;;;;;;;;;;22.40;45.00;;;;;;1555386;76;1122;-73
2021/10/15 00:49:29;;;;;;;;;;;22.40;45.00;;;;;;1536885;77;719;-73
2021/10/15 00:51:31;;;;;;;;;;;22.40;45.00;;;;;;1536128;77;783;-72
2021/10/15 00:53:33;;;;;;;;;;;22.40;45.00;;;;;;1537104;77;789;-73
2021/10/15 00:55:35;;;;;;;;;;;22.40;45.00;;;;;;1537174;77;749;-71
2021/10/15 00:57:37;;;;;;;;;;;22.40;45.00;;;;;;1533511;77;1160;-71
2021/10/15 00:59:40;;;;;;;;;;;22.40;45.00;;;;;;1536939;77;784;-71
2021/10/15 01:01:41;;;;;;;;;;;22.40;45.00;;;;;;1534010;77;1906;-69
2021/10/15 01:03:43;;;;;;;;;;;22.40;45.00;;;;;;1534523;77;707;-71
2021/10/15 01:05:45;;;;;;;;;;;22.40;44.90;;;;;;1537721;76;743;-73
2021/10/15 01:07:47;;;;;;;;;;;22.40;44.90;;;;;;1537020;77;1075;-72
2021/10/15 01:09:49;;;;;;;;;;;22.40;44.90;;;;;;1537437;77;764;-72
2021/10/15 01:11:51;;;;;;;;;;;22.40;44.90;;;;;;1536750;77;714;-72
2021/10/15 01:13:53;;;;;;;;;;;22.40;44.90;;;;;;1536788;77;798;-72
2021/10/15 01:15:57;;;;;;;;;;;22.40;44.90;;;;;;1536824;77;1167;-72
2021/10/15 01:17:59;;;;;;;;;;;22.40;44.90;;;;;;1530592;77;1821;-73
2021/10/15 01:20:00;;;;;;;;;;;22.40;44.90;;;;;;1537402;77;797;-72
2021/10/15 01:22:03;;;;;;;;;;;22.40;44.90;;;;;;1534091;77;1938;-72
2021/10/15 01:24:05;;;;;;;;;;;22.40;44.90;;;;;;1536446;77;695;-73
2021/10/15 01:26:07;;;;;;;;;;;22.40;44.80;;;;;;1534967;77;1141;-72
2021/10/15 01:28:09;;;;;;;;;;;22.40;44.90;;;;;;1534415;77;730;-72
2021/10/15 01:30:11;;;;;;;;;;;22.30;44.90;;;;;;1536969;77;689;-73
2021/10/15 01:32:13;;;;;;;;;;;22.30;44.90;;;;;;1536885;77;751;-73
2021/10/15 01:34:15;;;;;;;;;;;22.40;44.90;;;;;;1500862;78;821;-73
2021/10/15 01:36:17;;;;;;;;;;;22.40;44.90;;;;;;1536293;77;1123;-73
2021/10/15 01:38:19;;;;;;;;;;;22.40;44.90;;;;;;1538027;77;760;-71
2021/10/15 01:40:20;;;;;;;;;;;22.30;44.90;;;;;;1533138;77;842;-73
2021/10/15 01:44:42;;;;;;;;;;;22.30;45.00;;;;;;1533021;77;1635;-72
2021/10/15 01:46:44;;;;;;;;;;;22.30;45.00;;;;;;1535089;77;1186;-71
2021/10/15 01:48:46;;;;;;;;;;;22.30;45.00;;;;;;1536475;77;768;-71
2021/10/15 01:50:48;;;;;;;;;;;22.40;45.00;;;;;;1536930;77;735;-72
2021/10/15 01:52:50;;;;;;;;;;;22.30;45.00;;;;;;1540903;76;673;-71
2021/10/15 01:54:52;;;;;;;;;;;22.30;45.00;;;;;;1537153;77;722;-71
2021/10/15 01:56:54;;;;;;;;;;;22.30;45.00;;;;;;1565104;71;227975;-72
2021/10/15 01:58:55;;;;;;;;;;;22.30;45.00;;;;;;1638873;72;689;-74
2021/10/15 02:00:57;;;;;;;;;;;22.40;45.00;;;;;;1649747;72;723;-73
2021/10/15 02:02:59;;;;;;;;;;;22.30;45.10;;;;;;1642292;72;1982;-73
2021/10/15 02:05:01;;;;;;;;;;;22.30;45.10;;;;;;1648083;72;742;-73
2021/10/15 02:07:03;;;;;;;;;;;22.30;45.20;;;;;;1625414;72;1180;-73
2021/10/15 02:09:05;;;;;;;;;;;22.30;45.20;;;;;;1623635;73;754;-72
2021/10/15 02:11:07;;;;;;;;;;;22.40;45.10;;;;;;1621831;71;221352;-55
2021/10/15 02:13:09;;;;;;;;;;;22.30;45.20;;;;;;1637390;72;694;-55
2021/10/15 02:15:11;;;;;;;;;;;22.30;45.10;;;;;;1619428;71;1208;-55
2021/10/15 02:17:13;;;;;;;;;;;22.30;45.10;;;;;;1631824;72;792;-56
2021/10/15 02:19:15;;;;;;;;;;;22.30;45.10;;;;;;1635377;72;712;-54
2021/10/15 02:21:17;;;;;;;;;;;22.30;45.00;;;;;;1631526;72;675;-55
2021/10/15 02:23:19;;;;;;;;;;;22.30;45.10;;;;;;1602350;72;1931;-55
2021/10/15 02:25:21;;;;;;;;;;;22.30;45.10;;;;;;1623947;71;1096;-56
2021/10/15 02:27:22;;;;;;;;;;;22.30;45.00;;;;;;1610927;72;696;-56
2021/10/15 02:29:24;;;;;;;;;;;22.40;45.00;;;;;;1611869;72;706;-55
2021/10/15 02:31:26;;;;;;;;;;;22.30;45.00;;;;;;1595105;72;682;-56
2021/10/15 02:33:28;;;;;;;;;;;22.40;45.00;;;;;;1608472;72;727;-57
2021/10/15 02:35:30;;;;;;;;;;;22.40;44.90;;;;;;1613625;71;1109;-55
2021/10/15 02:37:32;;;;;;;;;;;22.50;45.00;;;;;;1606660;72;685;-55
2021/10/15 02:39:34;;;;;;;;;;;22.50;45.00;;;;;;1633623;72;732;-55
2021/10/15 02:41:37;;;;;;;;;;;22.60;44.80;;;;;;1609235;72;723;-54
2021/10/15 02:43:39;;;;;;;;;;;22.70;44.80;;;;;;1604157;72;1916;-55
2021/10/15 02:45:41;;;;;;;;;;;22.70;44.70;;;;;;1615494;71;1128;-55
2021/10/15 02:47:43;;;;;;;;;;;22.70;44.80;;;;;;1614265;72;681;-55
2021/10/15 02:49:45;;;;;;;;;;;22.70;44.80;;;;;;1624948;72;696;-54
2021/10/15 02:51:47;;;;;;;;;;;22.60;44.70;;;;;;1620334;72;727;-55
2021/10/15 02:53:49;;;;;;;;;;;22.70;44.90;;;;;;1619423;72;713;-54
2021/10/15 02:55:51;;;;;;;;;;;22.70;44.80;;;;;;1620584;72;1097;-56
2021/10/15 02:57:52;;;;;;;;;;;22.80;44.80;;;;;;1621929;72;735;-55
2021/10/15 02:59:54;;;;;;;;;;;22.80;44.80;;;;;;1625210;72;716;-55
2021/10/15 03:01:56;;;;;;;;;;;22.70;44.80;;;;;;1619926;72;764;-53
2021/10/15 03:03:58;;;;;;;;;;;22.80;44.70;;;;;;1621105;72;1926;-54
2021/10/15 03:06:00;;;;;;;;;;;22.80;44.80;;;;;;1616792;71;1109;-54
2021/10/15 03:08:02;;;;;;;;;;;22.70;44.90;;;;;;1629622;72;728;-54
2021/10/15 03:10:05;;;;;;;;;;;22.70;44.90;;;;;;1627667;72;708;-54
2021/10/15 03:12:07;;;;;;;;;;;22.70;44.90;;;;;;1632608;72;735;-55
2021/10/15 03:14:09;;;;;;;;;;;22.60;45.00;;;;;;1637395;71;1121;-55
2021/10/15 03:16:11;;;;;;;;;;;22.60;44.90;;;;;;1628182;72;707;-56
2021/10/15 03:18:13;;;;;;;;;;;22.60;44.90;;;;;;1629508;72;747;-55
2021/10/15 03:20:14;;;;;;;;;;;22.60;44.90;;;;;;1622689;72;732;-55
2021/10/15 03:22:16;;;;;;;;;;;22.60;44.80;;;;;;1620591;72;1942;-56
2021/10/15 03:24:18;;;;;;;;;;;22.70;44.80;;;;;;1620715;71;1065;-56
2021/10/15 03:26:20;;;;;;;;;;;22.70;44.80;;;;;;1575865;74;763;-54
2021/10/15 03:28:22;;;;;;;;;;;22.70;44.80;;;;;;1619748;72;708;-55
2021/10/15 03:30:24;;;;;;;;;;;22.70;44.80;;;;;;1613463;72;719;-54
2021/10/15 03:32:26;;;;;;;;;;;22.60;44.90;;;;;;1613025;72;706;-54
2021/10/15 03:34:28;;;;;;;;;;;22.60;45.00;;;;;;1613088;72;1118;-55
2021/10/15 03:36:29;;;;;;;;;;;22.60;45.10;;;;;;1634139;72;666;-55
2021/10/15 03:38:31;;;;;;;;;;;22.50;45.10;;;;;;1602853;72;968;-55
2021/10/15 03:40:33;;;;;;;;;;;22.60;45.20;;;;;;1610722;72;789;-56
2021/10/15 03:42:35;;;;;;;;;;;22.60;45.00;;;;;;1619888;72;1968;-54
2021/10/15 03:44:37;;;;;;;;;;;22.60;45.00;;;;;;1622941;71;1087;-54
2021/10/15 03:46:39;;;;;;;;;;;22.60;45.00;;;;;;1623134;72;779;-54
2021/10/15 03:48:41;;;;;;;;;;;22.60;44.90;;;;;;1605877;72;724;-54
2021/10/15 03:50:42;;;;;;;;;;;22.60;44.90;;;;;;1621531;72;719;-54
2021/10/15 03:52:44;;;;;;;;;;;22.60;44.90;;;;;;1623578;72;735;-53
2021/10/15 03:54:46;;;;;;;;;;;22.70;44.80;;;;;;1625100;71;1145;-54
2021/10/15 03:56:48;;;;;;;;;;;22.70;44.90;;;;;;1622528;72;674;-53
2021/10/15 03:58:50;;;;;;;;;;;22.70;44.70;;;;;;1629692;72;669;-54
2021/10/15 04:00:52;;;;;;;;;;;22.70;44.70;;;;;;1615904;72;728;-54
2021/10/15 04:02:54;;;;;;;;;;;22.80;44.70;;;;;;1621354;72;1940;-55
2021/10/15 04:04:56;;;;;;;;;;;22.90;44.50;;;;;;1627672;71;1157;-55
2021/10/15 04:06:57;;;;;;;;;;;23.00;44.20;;;;;;1630996;72;715;-56
2021/10/15 04:08:59;;;;;;;;;;;23.10;44.20;;;;;;1628756;72;824;-54
2021/10/15 04:11:01;;;;;;;;;;;23.10;44.00;;;;;;1622727;72;775;-58
2021/10/15 04:13:03;;;;;;;;;;;23.10;44.00;;;;;;1625875;72;933;-56
2021/10/15 04:15:05;;;;;;;;;;;23.10;44.10;;;;;;1621307;71;1204;-55
2021/10/15 04:17:07;;;;;;;;;;;23.00;43.90;;;;;;1609887;72;697;-55
2021/10/15 04:19:09;;;;;;;;;;;23.10;44.00;;;;;;1612123;72;681;-55
2021/10/15 04:21:11;;;;;;;;;;;23.10;43.80;;;;;;1622352;72;707;-54
2021/10/15 04:23:13;;;;;;;;;;;23.20;43.70;;;;;;1620450;72;1922;-55
2021/10/15 04:25:15;;;;;;;;;;;23.20;43.50;;;;;;1619469;72;1132;-54
2021/10/15 04:27:16;;;;;;;;;;;23.20;43.50;;;;;;1621474;72;729;-54
2021/10/15 04:29:18;;;;;;;;;;;23.30;43.40;;;;;;1623372;72;770;-56
2021/10/15 04:31:20;;;;;;;;;;;23.40;43.30;;;;;;1623019;72;710;-55
2021/10/15 04:33:22;;;;;;;;;;;23.30;43.10;;;;;;1625703;72;702;-54
2021/10/15 04:35:24;;;;;;;;;;;23.30;43.10;;;;;;1623621;71;1144;-55
2021/10/15 04:37:26;;;;;;;;;;;23.30;43.10;;;;;;1624010;72;740;-54
2021/10/15 04:39:28;;;;;;;;;;;23.30;43.00;;;;;;1601082;72;687;-55
2021/10/15 04:41:30;;;;;;;;;;;23.40;42.90;;;;;;1617205;72;684;-54
2021/10/15 04:43:31;;;;;;;;;;;23.30;42.90;;;;;;1619536;72;1919;-55
2021/10/15 04:45:33;;;;;;;;;;;23.50;43.00;;;;;;1594239;71;1140;-55
2021/10/15 04:47:35;;;;;;;;;;;23.40;42.80;;;;;;1633848;72;714;-54
2021/10/15 04:49:37;;;;;;;;;;;23.40;42.90;;;;;;1626384;72;737;-54
2021/10/15 04:51:39;;;;;;;;;;;23.30;42.80;;;;;;1625460;72;804;-54
2021/10/15 04:53:41;;;;;;;;;;;23.30;42.80;;;;;;1631317;72;679;-55
2021/10/15 04:55:43;;;;;;;;;;;23.30;43.00;;;;;;1622984;72;1138;-55
2021/10/15 04:57:45;;;;;;;;;;;23.30;43.00;;;;;;1622952;72;889;-55
2021/10/15 04:59:46;;;;;;;;;;;23.20;43.10;;;;;;1627494;72;688;-55
2021/10/15 05:01:48;;;;;;;;;;;23.20;43.40;;;;;;1622796;72;635;-57
2021/10/15 05:03:50;;;;;;;;;;;23.10;43.80;;;;;;1621300;72;1924;-58
2021/10/15 05:05:52;;;;;;;;;;;23.10;43.90;;;;;;1632417;72;1149;-56
2021/10/15 05:07:55;;;;;;;;;;;23.00;43.90;;;;;;1619883;72;700;-56
2021/10/15 05:09:57;;;;;;;;;;;23.00;44.10;;;;;;1629217;72;756;-55
2021/10/15 05:11:59;;;;;;;;;;;23.10;44.20;;;;;;1633983;72;628;-56
2021/10/15 05:14:01;;;;;;;;;;;23.10;44.10;;;;;;1624663;72;744;-56
2021/10/15 05:16:03;;;;;;;;;;;23.10;44.10;;;;;;1622849;72;1151;-54
2021/10/15 05:18:05;;;;;;;;;;;23.10;44.10;;;;;;1612432;72;665;-54
2021/10/15 05:20:07;;;;;;;;;;;23.10;44.20;;;;;;1635693;72;778;-57
2021/10/15 05:22:09;;;;;;;;;;;23.20;43.90;;;;;;1597854;72;664;-57
2021/10/15 05:24:11;;;;;;;;;;;23.30;43.70;;;;;;1634573;72;1925;-56
2021/10/15 05:26:13;;;;;;;;;;;23.30;43.60;;;;;;1632729;72;715;-57
2021/10/15 05:28:15;;;;;;;;;;;23.20;43.60;;;;;;1617988;72;715;-55
2021/10/15 05:30:17;;;;;;;;;;;23.30;43.70;;;;;;1632159;72;684;-55
2021/10/15 05:32:19;;;;;;;;;;;23.20;43.70;;;;;;1636585;72;667;-55
2021/10/15 05:34:21;;;;;;;;;;;23.30;43.60;;;;;;1625104;72;1149;-55
2021/10/15 05:36:23;;;;;;;;;;;23.20;43.60;;;;;;1631482;72;790;-54
2021/10/15 05:38:25;;;;;;;;;;;23.20;43.60;;;;;;1609425;72;775;-56
2021/10/15 05:40:26;;;;;;;;;;;23.10;43.60;;;;;;1619977;72;718;-56
2021/10/15 05:42:28;;;;;;;;;;;23.10;43.70;;;;;;1614013;72;692;-58
2021/10/15 05:44:30;;;;;;;;;;;23.10;43.80;;;;;;1598200;72;1939;-56
2021/10/15 05:46:32;;;;;;;;;;;23.10;43.80;;;;;;1628557;72;710;-55
2021/10/15 05:48:34;;;;;;;;;;;23.00;43.70;;;;;;1609915;72;689;-56
2021/10/15 05:50:36;;;;;;;;;;;23.00;43.60;;;;;;1607389;72;1084;-55
2021/10/15 05:52:41;;;;;;;;;;;23.00;43.60;;;;;;1610093;72;740;-56
2021/10/15 05:54:48;;;;;;;;;;;22.90;43.60;;;;;;1610030;72;1595;-55
2021/10/15 05:56:59;;;;;;;;;;;22.90;43.60;;;;;;1610185;72;1570;-53
2021/10/15 05:58:50;;;;;;;;;;;22.90;43.60;;;;;;1615385;72;1578;-55
2021/10/15 06:00:52;;;;;;;;;;;22.90;43.60;;;;;;1609003;72;668;-55
2021/10/15 06:02:54;;;;;;;;;;;22.90;43.60;;;;;;1601187;72;693;-56
2021/10/15 06:05:45;;;;;;;;;;;22.90;43.60;;;;;;1609960;72;1934;-55
2021/10/15 06:14:17;;;;;;;;;;;22.80;43.20;;;;;;1613034;72;1680;-56
2021/10/15 06:16:16;;;;;;;;;;;22.80;43.10;;;;;;1608819;72;1681;-56
2021/10/15 06:18:20;;;;;;;;;;;22.80;43.00;;;;;;1615738;72;774;-54
2021/10/15 06:20:21;;;;;;;;;;;22.70;43.10;;;;;;1626079;72;1647;-55
2021/10/15 06:22:24;;;;;;;;;;;22.70;42.70;;;;;;1630697;72;745;-57
2021/10/15 06:24:26;;;;;;;;;;;22.70;41.20;;;;;;1628411;71;1894;-56
2021/10/15 06:26:28;;;;;;;;;;;22.70;39.90;;;;;;1632982;72;674;-55
2021/10/15 06:28:30;;;;;;;;;;;22.70;39.10;;;;;;1628059;72;700;-54
2021/10/15 06:30:32;;;;;;;;;;;22.60;38.60;;;;;;1623789;72;663;-56
2021/10/15 06:32:34;;;;;;;;;;;22.60;38.00;;;;;;1624045;72;708;-58
2021/10/15 06:34:36;;;;;;;;;;;22.60;38.00;;;;;;1628271;71;1132;-55
2021/10/15 06:36:38;;;;;;;;;;;22.60;37.70;;;;;;1620514;72;751;-55
2021/10/15 06:38:39;;;;;;;;;;;22.50;37.40;;;;;;1620817;72;774;-56
2021/10/15 06:40:41;;;;;;;;;;;22.50;37.30;;;;;;1625279;72;659;-55
2021/10/15 06:42:43;;;;;;;;;;;22.50;37.10;;;;;;1625850;72;553;-55
2021/10/15 06:44:45;;;;;;;;;;;22.40;37.00;;;;;;1624265;71;1945;-55
2021/10/15 06:46:47;;;;;;;;;;;22.40;36.80;;;;;;1622265;72;739;-57
2021/10/15 06:48:49;;;;;;;;;;;22.40;36.80;;;;;;1622616;72;879;-57
2021/10/15 06:50:51;;;;;;;;;;;22.40;36.50;;;;;;1620420;72;681;-54
2021/10/15 06:52:52;;;;;;;;;;;22.40;37.50;;;;;;1608387;72;699;-56
2021/10/15 06:54:54;;;;;;;;;;;22.30;38.30;;;;;;1616791;72;1133;-56
2021/10/15 06:56:56;;;;;;;;;;;22.30;38.60;;;;;;1620835;72;596;-55
2021/10/15 06:58:58;;;;;;;;;;;22.40;38.90;;;;;;1612165;72;713;-55
2021/10/15 07:01:00;;;;;;;;;;;22.40;38.90;;;;;;1626853;72;710;-55
2021/10/15 07:03:02;;;;;;;;;;;22.40;39.00;;;;;;1628099;72;662;-56
2021/10/15 07:05:04;;;;;;;;;;;22.60;39.20;;;;;;1632252;71;1939;-57
2021/10/15 07:07:06;;;;;;;;;;;22.60;39.40;;;;;;1625191;72;751;-55
2021/10/15 07:09:08;;;;;;;;;;;22.40;39.50;;;;;;1627863;72;708;-55
2021/10/15 07:11:10;;;;;;;;;;;22.40;39.80;;;;;;1636868;72;698;-54
2021/10/15 07:13:15;;;;;;;;;;;22.40;40.00;;;;;;1632681;72;670;-57
2021/10/15 07:15:16;;;;;;;;;;;22.30;40.30;;;;;;1636324;71;1148;-57
2021/10/15 07:17:19;;;;;;;;;;;22.30;40.50;;;;;;1631417;72;665;-56
2021/10/15 07:19:22;;;;;;;;;;;22.30;40.70;;;;;;1634684;72;711;-55
2021/10/15 07:21:24;;;;;;;;;;;22.30;40.80;;;;;;1619831;72;879;-57
2021/10/15 07:23:26;;;;;;;;;;;22.40;40.90;;;;;;1641676;72;717;-58
2021/10/15 07:25:28;;;;;;;;;;;22.30;41.00;;;;;;1619625;71;1950;-57
2021/10/15 07:27:30;;;;;;;;;;;22.30;41.10;;;;;;1631855;72;668;-56
2021/10/15 07:29:32;;;;;;;;;;;22.30;41.30;;;;;;1636325;72;716;-56
2021/10/15 07:31:35;;;;;;;;;;;22.30;41.20;;;;;;1634510;72;796;-55
2021/10/15 07:33:37;;;;;;;;;;;22.20;41.20;;;;;;1640937;72;676;-58
2021/10/15 07:35:39;;;;;;;;;;;22.30;41.40;;;;;;1636440;71;1113;-56
2021/10/15 07:37:41;;;;;;;;;;;22.30;41.50;;;;;;1632046;72;868;-55
2021/10/15 07:39:43;;;;;;;;;;;22.40;41.50;;;;;;1626406;72;670;-54
2021/10/15 07:41:45;;;;;;;;;;;22.30;41.50;;;;;;1640456;72;795;-54
2021/10/15 07:43:50;;;;;;;;;;;22.30;41.60;;;;;;1623942;72;1923;-54
2021/10/15 07:45:51;;;;;;;;;;;22.40;41.50;;;;;;1631831;72;1626;-54
2021/10/15 07:47:53;;;;;;;;;;;22.30;41.60;;;;;;1638304;72;670;-55
2021/10/15 07:49:55;;;;;;;;;;;22.30;41.70;;;;;;1632195;72;751;-53
2021/10/15 07:51:57;;;;;;;;;;;22.30;41.70;;;;;;1625146;72;645;-57
2021/10/15 07:53:58;;;;;;;;;;;22.30;41.80;;;;;;1621734;72;779;-56
2021/10/15 07:56:00;;;;;;;;;;;22.40;41.80;;;;;;1635207;71;1093;-54
2021/10/15 07:58:02;;;;;;;;;;;22.40;41.80;;;;;;1608760;72;223458;-74
2021/10/15 08:00:05;;;;;;;;;;;22.50;42.00;;;;;;1606378;73;727;-73
2021/10/15 08:02:07;;;;;;;;;;;22.50;42.10;;;;;;1609335;72;740;-73
2021/10/15 08:04:09;;;;;;;;;;;22.50;42.00;;;;;;1608824;73;1924;-72
2021/10/15 08:06:11;;;;;;;;;;;22.60;42.10;;;;;;1610745;72;1617;-73
2021/10/15 08:08:13;;;;;;;;;;;22.60;41.90;;;;;;1622518;72;737;-73
2021/10/15 08:10:15;;;;;;;;;;;22.60;41.90;;;;;;1623804;71;2028;-71
2021/10/15 08:12:17;;;;;;;;;;;22.70;42.00;;;;;;1581246;74;709;-71
2021/10/15 08:14:20;;;;;;;;;;;22.60;41.80;;;;;;1583318;74;705;-70
2021/10/15 08:16:23;;;;;;;;;;;22.70;41.80;;;;;;1588112;74;911;-70
2021/10/15 08:18:25;;;;;;;;;;;22.80;41.70;;;;;;1583740;74;787;-70
2021/10/15 08:20:27;;;;;;;;;;;22.70;41.70;;;;;;1585031;74;1161;-70
2021/10/15 08:22:29;;;;;;;;;;;22.80;41.70;;;;;;1589726;74;772;-71
2021/10/15 08:24:31;;;;;;;;;;;22.80;41.60;;;;;;1583545;74;1917;-71
2021/10/15 08:26:33;;;;;;;;;;;22.80;41.60;;;;;;1580881;74;768;-71
2021/10/15 08:28:35;;;;;;;;;;;22.90;41.70;;;;;;1594716;74;810;-70
2021/10/15 08:30:37;;;;;;;;;;;22.90;41.70;;;;;;1585509;74;1130;-70
2021/10/15 08:32:39;;;;;;;;;;;23.00;41.60;;;;;;1584693;74;787;-70
2021/10/15 08:34:41;;;;;;;;;;;23.00;41.50;;;;;;1587455;74;702;-70
2021/10/15 08:36:43;;;;;;;;;;;23.00;41.50;;;;;;1586829;74;700;-74
2021/10/15 08:38:45;;;;;;;;;;;23.10;41.50;;;;;;1583872;74;682;-69
2021/10/15 08:40:47;;;;;;;;;;;23.10;41.40;;;;;;1583995;74;1140;-76
2021/10/15 08:42:50;;;;;;;;;;;23.20;41.10;;;;;;1585938;74;710;-76
2021/10/15 08:44:52;;;;;;;;;;;23.30;40.80;;;;;;1584290;74;1932;-76
2021/10/15 08:46:55;;;;;;;;;;;23.50;40.50;;;;;;1584957;74;669;-77
2021/10/15 08:48:57;;;;;;;;;;;23.60;40.10;;;;;;1591272;74;702;-76
2021/10/15 08:50:58;;;;;;;;;;;23.70;40.00;;;;;;1592661;74;1124;-76
2021/10/15 08:53:02;;;;;;;;;;;23.80;39.70;;;;;;1574624;74;788;-75
2021/10/15 08:55:04;;;;;;;;;;;23.90;39.50;;;;;;1588085;74;671;-78
2021/10/15 08:57:06;;;;;;;;;;;23.90;39.40;;;;;;1572750;74;710;-77
2021/10/15 08:59:09;;;;;;;;;;;23.80;39.40;;;;;;1578705;74;712;-79
2021/10/15 09:01:11;;;;;;;;;;;23.90;39.40;;;;;;1584681;74;1144;-77
2021/10/15 09:03:14;;;;;;;;;;;23.90;39.20;;;;;;1568991;74;755;-76
2021/10/15 09:05:16;;;;;;;;;;;24.00;39.20;;;;;;1579878;74;1943;-77
2021/10/15 09:07:20;;;;;;;;;;;24.00;39.20;;;;;;1581986;73;717;-77
2021/10/15 09:09:28;;;;;;;;;;;23.90;39.20;;;;;;1598403;73;769;-76
2021/10/15 09:11:34;;;;;;;;;;;23.70;39.30;;;;;;1598150;73;1195;-75
2021/10/15 09:13:35;;;;;;;;;;;23.70;39.50;;;;;;1595473;74;686;-76
2021/10/15 09:15:38;;;;;;;;;;;23.70;39.70;;;;;;1565168;75;715;-77
2021/10/15 09:17:50;;;;;;;;;;;23.70;39.80;;;;;;1583954;74;769;-75
2021/10/15 09:19:53;;;;;;;;;;;23.70;39.80;;;;;;1587852;74;1196;-75
2021/10/15 09:22:11;;;;;;;;;;;23.80;39.70;;;;;;1589296;74;769;-75
2021/10/15 09:24:13;;;;;;;;;;;23.70;39.80;;;;;;1594839;74;772;-77
2021/10/15 09:26:16;;;;;;;;;;;23.80;39.70;;;;;;1574866;75;1941;-75
2021/10/15 09:28:19;;;;;;;;;;;23.70;39.70;;;;;;1582948;74;748;-75
2021/10/15 09:30:22;;;;;;;;;;;23.70;39.80;;;;;;1592601;74;1091;-76
2021/10/15 09:32:25;;;;;;;;;;;23.70;39.80;;;;;;1581898;74;1130;-75
2021/10/15 09:34:26;;;;;;;;;;;23.80;39.90;;;;;;1596018;74;717;-75
2021/10/15 09:36:28;;;;;;;;;;;23.90;40.00;;;;;;1586807;74;721;-76
2021/10/15 09:38:30;;;;;;;;;;;23.90;39.80;;;;;;1592099;74;772;-75
2021/10/15 09:40:33;;;;;;;;;;;23.90;39.80;;;;;;1587574;74;1100;-75
2021/10/15 09:42:39;;;;;;;;;;;23.90;39.80;;;;;;1592038;74;870;-75
2021/10/15 09:44:41;;;;;;;;;;;23.90;39.70;;;;;;1586428;74;1948;-75
2021/10/15 09:46:43;;;;;;;;;;;23.90;39.80;;;;;;1594291;74;720;-77
2021/10/15 09:48:45;;;;;;;;;;;23.90;39.80;;;;;;1595439;74;718;-75
2021/10/15 09:50:47;;;;;;;;;;;23.90;39.80;;;;;;1575374;74;1182;-76
2021/10/15 09:52:50;;;;;;;;;;;23.90;39.80;;;;;;1595257;74;739;-76
2021/10/15 09:54:58;;;;;;;;;;;23.90;39.90;;;;;;1587179;73;1005;-78
2021/10/15 09:57:00;;;;;;;;;;;23.90;39.90;;;;;;1596715;74;720;-76
2021/10/15 09:59:02;;;;;;;;;;;23.80;39.90;;;;;;1596206;74;677;-76
2021/10/15 10:01:04;;;;;;;;;;;23.90;40.00;;;;;;1592315;74;1159;-76
2021/10/15 10:03:06;;;;;;;;;;;23.80;39.90;;;;;;1588879;74;725;-77
2021/10/15 10:05:13;;;;;;;;;;;23.80;39.90;;;;;;1590345;74;1933;-77
2021/10/15 10:07:12;;;;;;;;;;;23.80;40.00;;;;;;1590161;74;1244;-78
2021/10/15 10:09:14;;;;;;;;;;;23.70;40.10;;;;;;1595425;74;751;-76
2021/10/15 10:11:16;;;;;;;;;;;23.70;40.10;;;;;;1590778;74;1144;-75
2021/10/15 10:13:18;;;;;;;;;;;23.70;40.20;;;;;;1593367;74;719;-76
2021/10/15 10:15:21;;;;;;;;;;;23.70;40.20;;;;;;1589435;74;690;-76
2021/10/15 10:17:25;;;;;;;;;;;23.60;40.10;;;;;;1598132;74;726;-78
2021/10/15 10:19:28;;;;;;;;;;;23.70;40.20;;;;;;1598082;74;693;-77
2021/10/15 10:21:33;;;;;;;;;;;23.70;40.20;;;;;;1598046;74;1159;-75
2021/10/15 10:23:38;;;;;;;;;;;23.60;40.10;;;;;;1592097;73;1472;-76
2021/10/15 10:25:40;;;;;;;;;;;23.70;40.40;;;;;;1590391;74;1922;-76
2021/10/15 10:27:43;;;;;;;;;;;23.60;40.30;;;;;;1556880;76;610;-77
2021/10/15 10:29:52;;;;;;;;;;;23.60;40.30;;;;;;1587578;74;1140;-76
2021/10/15 10:31:48;;;;;;;;;;;23.60;40.40;;;;;;1595289;74;1103;-76
2021/10/15 10:33:55;;;;;;;;;;;23.60;40.40;;;;;;1598176;74;723;-77
2021/10/15 10:35:58;;;;;;;;;;;23.60;40.40;;;;;;1593251;74;764;-75
2021/10/15 10:38:18;;;;;;;;;;;23.70;40.60;;;;;;1586264;74;1117;-75
2021/10/15 10:40:20;;;;;;;;;;;23.60;40.50;;;;;;1587685;74;1088;-76
2021/10/15 10:42:28;;;;;;;;;;;23.70;40.60;;;;;;1592410;74;664;-75
2021/10/15 10:44:26;;;;;;;;;;;23.60;40.50;;;;;;1583359;74;1107;-76
2021/10/15 10:46:29;;;;;;;;;;;23.60;40.50;;;;;;1594696;74;1953;-75
2021/10/15 10:48:31;;;;;;;;;;;23.60;41.00;;;;;;1590837;74;711;-75
2021/10/15 10:50:33;;;;;;;;;;;23.60;41.70;;;;;;1588969;74;1185;-77
2021/10/15 10:52:36;;;;;;;;;;;23.50;42.90;;;;;;1599024;74;713;-75
2021/10/15 10:54:39;;;;;;;;;;;23.50;44.30;;;;;;1593063;74;910;-76
2021/10/15 10:56:44;;;;;;;;;;;23.50;43.50;;;;;;1588832;74;619;-75
2021/10/15 10:58:46;;;;;;;;;;;23.50;44.00;;;;;;1586850;74;717;-76
2021/10/15 11:00:48;;;;;;;;;;;23.50;45.10;;;;;;1594794;74;1155;-79
2021/10/15 11:02:54;;;;;;;;;;;23.50;45.70;;;;;;1592626;74;727;-76
2021/10/15 11:04:56;;;;;;;;;;;23.70;45.10;;;;;;1588318;74;1920;-76
2021/10/15 11:07:00;;;;;;;;;;;23.60;44.90;;;;;;1594528;74;710;-80
2021/10/15 11:09:21;;;;;;;;;;;23.80;45.00;;;;;;1596190;74;700;-77
2021/10/15 11:11:27;;;;;;;;;;;23.80;45.70;;;;;;1572057;75;681;-58
2021/10/15 11:13:32;;;;;;;;;;;23.90;45.00;;;;;;1562669;75;1485;-60
2021/10/15 11:15:34;;;;;;;;;;;23.90;45.10;;;;;;1570611;75;1201;-60
2021/10/15 11:17:36;;;;;;;;;;;23.80;45.20;;;;;;1570152;75;868;-60
2021/10/15 11:19:38;;;;;;;;;;;23.90;45.30;;;;;;1573839;75;724;-60
2021/10/15 11:21:40;;;;;;;;;;;24.00;45.10;;;;;;1567209;75;725;-60
2021/10/15 11:23:42;;;;;;;;;;;23.90;45.40;;;;;;1569083;75;711;-60
2021/10/15 11:25:45;;;;;;;;;;;23.80;45.80;;;;;;1576825;75;1945;-60
2021/10/15 11:27:52;;;;;;;;;;;23.90;45.80;;;;;;1573949;75;759;-61
2021/10/15 11:29:55;;;;;;;;;;;23.80;45.70;;;;;;1570769;74;1039;-60
2021/10/15 11:31:57;;;;;;;;;;;23.70;45.80;;;;;;1565705;75;736;-60
2021/10/15 11:34:09;;;;;;;;;;;23.70;45.70;;;;;;1574547;75;777;-60
2021/10/15 11:36:11;;;;;;;;;;;23.60;45.60;;;;;;1569335;75;789;-61
2021/10/15 11:38:18;;;;;;;;;;;23.60;45.70;;;;;;1564653;75;729;-60
2021/10/15 11:40:21;;;;;;;;;;;23.60;45.60;;;;;;1571887;73;2224;-60
2021/10/15 11:42:23;;;;;;;;;;;23.60;45.30;;;;;;1572781;75;705;-60
2021/10/15 11:44:32;;;;;;;;;;;23.60;45.40;;;;;;1575128;75;1207;-60
2021/10/15 11:46:34;;;;;;;;;;;23.60;45.30;;;;;;1570127;75;1932;-60
2021/10/15 11:48:44;;;;;;;;;;;23.50;45.00;;;;;;1575883;75;715;-61
2021/10/15 11:50:47;;;;;;;;;;;23.60;45.00;;;;;;1529649;77;1693;-61
2021/10/15 11:52:54;;;;;;;;;;;23.50;45.00;;;;;;1582375;73;742;-60
2021/10/15 11:54:55;;;;;;;;;;;23.60;45.00;;;;;;1583595;73;1368;-60
2021/10/15 11:56:57;;;;;;;;;;;23.80;44.70;;;;;;1544420;76;1106;-60
2021/10/15 11:59:00;;;;;;;;;;;23.90;44.50;;;;;;1586757;73;745;-60
2021/10/15 12:01:03;;;;;;;;;;;23.90;44.40;;;;;;1589851;74;750;-61
2021/10/15 12:03:04;;;;;;;;;;;23.90;44.20;;;;;;1591284;74;724;-59
2021/10/15 12:05:06;;;;;;;;;;;23.90;44.10;;;;;;1588770;74;1171;-60
2021/10/15 12:07:08;;;;;;;;;;;24.00;43.80;;;;;;1587895;74;1935;-60
2021/10/15 12:09:15;;;;;;;;;;;24.00;43.70;;;;;;1590518;74;697;-60
2021/10/15 12:11:22;;;;;;;;;;;24.10;43.60;;;;;;1581977;74;786;-60
2021/10/15 12:13:23;;;;;;;;;;;24.10;43.50;;;;;;1579635;75;826;-60
2021/10/15 12:15:25;;;;;;;;;;;24.10;43.40;;;;;;1570359;75;1160;-60
2021/10/15 12:17:27;;;;;;;;;;;24.20;43.40;;;;;;1540629;76;928;-60
2021/10/15 12:19:33;;;;;;;;;;;24.10;43.40;;;;;;1519979;77;686;-60